createdAt,value
2023-04-15T00:02:19.719Z,100093.41
2023-04-15T00:04:48.061Z,100105.78
2023-04-15T00:07:16.271Z,100103.81
2023-04-15T00:09:46.062Z,100088.50
2023-04-15T00:12:13.971Z,100101.91
2023-04-15T00:14:41.844Z,100107.31
2023-04-15T00:17:09.492Z,100094.84
2023-04-15T00:19:37.499Z,100092.69
2023-04-15T00:22:05.283Z,100093.22
2023-04-15T00:24:33.061Z,100090.00
2023-04-15T00:27:02.047Z,100094.38
2023-04-15T00:29:29.810Z,100092.41
2023-04-15T00:31:58.076Z,100078.25
2023-04-15T00:34:25.874Z,100087.75
2023-04-15T00:36:53.565Z,100094.56
2023-04-15T00:39:21.256Z,100094.75
2023-04-15T00:41:50.059Z,100090.53
2023-04-15T00:44:19.660Z,100091.53
2023-04-15T00:46:48.657Z,100088.31
2023-04-15T00:49:16.282Z,100092.56
2023-04-15T00:51:43.935Z,100085.69
2023-04-15T00:54:12.175Z,100083.72
2023-04-15T00:56:40.881Z,100079.84
2023-04-15T00:59:09.526Z,100080.50
2023-04-15T01:01:39.399Z,100081.19
2023-04-15T01:04:07.321Z,100080.19
2023-04-15T01:06:35.148Z,100078.75
2023-04-15T01:09:03.421Z,100066.31
2023-04-15T01:11:33.173Z,100055.81
2023-04-15T01:14:01.065Z,100053.38
2023-04-15T01:16:29.739Z,100055.97
2023-04-15T01:18:59.094Z,100042.81
2023-04-15T01:21:28.062Z,100041.00
2023-04-15T01:23:56.788Z,100041.81
2023-04-15T01:26:26.156Z,100039.75
2023-04-15T01:28:53.844Z,100031.84
2023-04-15T01:31:22.116Z,100026.50
2023-04-15T01:33:49.936Z,100022.91
2023-04-15T01:36:17.615Z,100014.88
2023-04-15T01:38:45.246Z,100001.88
2023-04-15T01:41:14.403Z,99996.69
2023-04-15T01:43:43.435Z,99995.50
2023-04-15T01:46:11.221Z,99986.47
2023-04-15T01:48:38.903Z,99983.88
2023-04-15T01:51:06.788Z,99973.56
2023-04-15T01:53:34.554Z,99963.63
2023-04-15T01:56:02.493Z,99961.38
2023-04-15T01:58:30.328Z,99951.56
2023-04-15T02:00:59.324Z,99947.53
2023-04-15T02:03:27.716Z,99942.16
2023-04-15T02:05:55.551Z,99923.78
2023-04-15T02:08:23.719Z,99933.09
2023-04-15T02:10:51.796Z,99888.28
2023-04-15T02:13:19.896Z,99909.66
2023-04-15T02:15:50.921Z,99910.44
2023-04-15T02:18:20.032Z,99918.78
2023-04-15T02:20:48.729Z,99907.59
2023-04-15T02:23:16.792Z,99906.25
2023-04-15T02:25:53.801Z,99901.41
2023-04-15T02:28:22.176Z,99886.81
2023-04-15T02:30:52.749Z,99891.84
2023-04-15T02:33:22.691Z,99881.81
2023-04-15T02:35:50.887Z,99878.31
2023-04-15T02:38:18.567Z,99857.47
2023-04-15T02:40:46.516Z,99839.66
2023-04-15T02:43:14.130Z,99846.09
2023-04-15T02:45:43.552Z,99841.53
2023-04-15T02:48:11.520Z,99832.94
2023-04-15T02:50:40.810Z,99815.50
2023-04-15T02:53:08.587Z,99792.25
2023-04-15T02:55:36.402Z,99782.84
2023-04-15T02:58:04.049Z,99791.34
2023-04-15T03:00:31.693Z,99780.38
2023-04-15T03:03:00.620Z,99795.19
2023-04-15T03:05:28.552Z,99800.72
2023-04-15T03:07:57.547Z,99796.72
2023-04-15T03:10:25.519Z,99794.31
2023-04-15T03:12:53.187Z,99791.09
2023-04-15T03:15:21.160Z,99795.19
2023-04-15T03:17:49.656Z,99792.75
2023-04-15T03:20:17.823Z,99783.75
2023-04-15T03:22:45.484Z,99786.97
2023-04-15T03:25:14.485Z,99787.31
2023-04-15T03:27:42.938Z,99787.31
2023-04-15T03:30:11.677Z,99792.69
2023-04-15T03:32:40.021Z,99791.97
2023-04-15T03:35:08.284Z,99805.81
2023-04-15T03:37:36.064Z,99787.13
2023-04-15T03:40:03.880Z,99784.53
2023-04-15T03:42:32.992Z,99774.34
2023-04-15T03:45:01.426Z,99769.16
2023-04-15T03:47:29.173Z,99780.31
2023-04-15T03:49:57.006Z,99779.53
2023-04-15T03:52:24.851Z,99781.13
2023-04-15T03:54:52.900Z,99787.47
2023-04-15T03:57:20.567Z,99790.06
2023-04-15T03:59:49.648Z,99787.47
2023-04-15T04:02:17.478Z,99783.50
2023-04-15T04:04:45.422Z,99770.09
2023-04-15T04:07:17.125Z,99777.06
2023-04-15T04:09:46.662Z,99772.06
2023-04-15T04:12:14.929Z,99773.84
2023-04-15T04:14:42.616Z,99779.81
2023-04-15T04:17:11.773Z,99778.41
2023-04-15T04:19:39.551Z,99783.13
2023-04-15T04:22:07.393Z,99767.47
2023-04-15T04:24:35.119Z,99773.75
2023-04-15T04:27:03.053Z,99765.97
2023-04-15T04:29:30.841Z,99764.88
2023-04-15T04:31:58.518Z,99758.06
2023-04-15T04:34:27.583Z,99745.84
2023-04-15T04:36:55.275Z,99738.88
2023-04-15T04:39:22.930Z,99746.47
2023-04-15T04:41:52.218Z,99750.50
2023-04-15T04:44:19.946Z,99742.59
2023-04-15T04:46:47.696Z,99741.47
2023-04-15T04:49:15.457Z,99749.22
2023-04-15T04:51:44.792Z,99730.72
2023-04-15T04:54:12.519Z,99737.56
2023-04-15T04:56:40.481Z,99729.94
2023-04-15T04:59:08.136Z,99729.13
2023-04-15T05:01:36.017Z,99734.31
2023-04-15T05:04:05.081Z,99739.94
2023-04-15T05:06:33.169Z,99748.34
2023-04-15T05:09:03.303Z,99751.91
2023-04-15T05:11:31.420Z,99747.91
2023-04-15T05:13:59.795Z,99742.28
2023-04-15T05:16:27.517Z,99737.00
2023-04-15T05:18:55.622Z,99747.53
2023-04-15T05:21:23.503Z,99740.75
2023-04-15T05:23:51.223Z,99736.53
2023-04-15T05:26:21.643Z,99746.38
2023-04-15T05:28:49.635Z,99736.50
2023-04-15T05:31:17.548Z,99729.41
2023-04-15T05:33:45.448Z,99702.25
2023-04-15T05:36:13.409Z,99719.16
2023-04-15T05:38:41.254Z,99712.81
2023-04-15T05:41:09.054Z,99723.63
2023-04-15T05:43:38.132Z,99716.72
2023-04-15T05:46:06.078Z,99713.25
2023-04-15T05:48:33.871Z,99714.22
2023-04-15T05:51:01.671Z,99708.22
2023-04-15T05:53:29.373Z,99711.22
2023-04-15T05:55:57.103Z,99710.31
2023-04-15T05:58:24.846Z,99710.47
2023-04-15T06:00:54.122Z,99704.69
2023-04-15T06:03:21.923Z,99709.41
2023-04-15T06:05:49.890Z,99696.91
2023-04-15T06:08:17.919Z,99695.19
2023-04-15T06:10:46.091Z,99707.56
2023-04-15T06:13:14.000Z,99703.25
2023-04-15T06:15:42.243Z,99706.47
2023-04-15T06:18:11.677Z,99713.53
2023-04-15T06:20:39.542Z,99706.66
2023-04-15T06:23:07.259Z,99714.88
2023-04-15T06:25:34.945Z,99712.53
2023-04-15T06:28:02.619Z,99718.97
2023-04-15T06:30:30.545Z,99716.84
2023-04-15T06:32:58.943Z,99703.78
2023-04-15T06:35:28.613Z,99707.34
2023-04-15T06:37:56.656Z,99711.31
2023-04-15T06:40:24.381Z,99701.25
2023-04-15T06:42:52.135Z,99710.22
2023-04-15T06:45:19.790Z,99717.75
2023-04-15T06:47:47.590Z,99714.16
2023-04-15T06:50:15.529Z,99721.19
2023-04-15T06:52:44.587Z,99725.53
2023-04-15T06:55:12.344Z,99739.44
2023-04-15T06:57:40.046Z,99759.97
2023-04-15T07:00:11.190Z,99788.28
2023-04-15T07:02:39.199Z,99807.97
2023-04-15T07:05:08.402Z,99834.13
2023-04-15T07:07:36.223Z,99870.25
2023-04-15T07:10:06.251Z,99906.25
2023-04-15T07:12:33.879Z,99939.81
2023-04-15T07:15:01.580Z,99970.75
2023-04-15T07:17:29.268Z,100013.34
2023-04-15T07:19:56.949Z,100041.41
2023-04-15T07:22:24.705Z,100067.47
2023-04-15T07:24:52.422Z,100068.91
2023-04-15T07:27:21.449Z,100087.34
2023-04-15T07:29:51.500Z,100097.75
2023-04-15T07:32:19.264Z,100107.03
2023-04-15T07:34:47.050Z,100116.88
2023-04-15T07:37:14.777Z,100122.56
2023-04-15T07:39:42.723Z,100134.66
2023-04-15T07:42:10.573Z,100160.25
2023-04-15T07:44:39.638Z,100162.50
2023-04-15T07:47:07.270Z,100192.09
2023-04-15T07:49:34.958Z,100212.84
2023-04-15T07:52:02.620Z,100271.22
2023-04-15T07:54:30.419Z,100312.84
2023-04-15T07:56:58.969Z,100339.16
2023-04-15T07:59:27.708Z,100341.53
2023-04-15T08:01:56.608Z,100327.72
2023-04-15T08:04:24.613Z,100345.03
2023-04-15T08:06:52.593Z,100365.94
2023-04-15T08:09:20.596Z,100393.72
2023-04-15T08:11:50.327Z,100368.22
2023-04-15T08:14:18.014Z,100371.06
2023-04-15T08:16:45.793Z,100410.31
2023-04-15T08:19:14.854Z,100408.75
2023-04-15T08:21:42.958Z,100439.94
2023-04-15T08:24:11.567Z,100450.44
2023-04-15T08:26:39.115Z,100479.88
2023-04-15T08:29:06.853Z,100524.81
2023-04-15T08:31:34.861Z,100501.34
2023-04-15T08:34:02.650Z,100540.66
2023-04-15T08:36:32.446Z,100570.69
2023-04-15T08:39:01.455Z,100626.59
2023-04-15T08:41:35.782Z,100684.34
2023-04-15T08:44:06.239Z,100710.59
2023-04-15T08:46:34.814Z,100692.63
2023-04-15T08:49:04.776Z,100688.94
2023-04-15T08:51:34.758Z,100742.72
2023-04-15T08:54:03.294Z,100806.03
2023-04-15T08:56:32.707Z,100884.72
2023-04-15T08:59:00.678Z,100957.69
2023-04-15T09:01:28.757Z,100947.75
2023-04-15T09:03:57.669Z,100989.00
2023-04-15T09:06:26.357Z,101038.00
2023-04-15T09:08:55.566Z,101136.56
2023-04-15T09:11:23.684Z,101130.38
2023-04-15T09:13:51.587Z,101177.44
2023-04-15T09:16:19.606Z,101196.69
2023-04-15T09:18:47.378Z,101199.03
2023-04-15T09:21:17.445Z,101189.00
2023-04-15T09:23:58.287Z,101215.59
2023-04-15T09:26:33.624Z,101200.78
2023-04-15T09:29:06.983Z,101186.44
2023-04-15T09:31:35.028Z,101226.63
2023-04-15T09:34:03.010Z,101250.75
2023-04-15T09:36:30.872Z,101273.84
2023-04-15T09:39:01.123Z,101255.19
2023-04-15T09:41:29.487Z,101249.94
2023-04-15T09:43:57.301Z,101251.25
2023-04-15T09:46:43.426Z,101248.63
2023-04-15T09:49:12.048Z,101283.22
2023-04-15T09:51:40.160Z,101292.41
2023-04-15T09:54:09.238Z,101251.59
2023-04-15T09:56:38.627Z,101261.50
2023-04-15T09:59:06.984Z,101275.78
2023-04-15T10:01:34.921Z,101254.34
2023-04-15T10:04:04.996Z,101244.16
2023-04-15T10:06:33.427Z,101261.72
2023-04-15T10:09:01.908Z,101258.47
2023-04-15T10:11:31.817Z,101272.84
2023-04-15T10:14:00.088Z,101322.56
2023-04-15T10:16:29.586Z,101289.75
2023-04-15T10:18:59.042Z,101298.91
2023-04-15T10:21:26.768Z,101306.72
2023-04-15T10:23:54.819Z,101293.31
2023-04-15T10:26:22.856Z,101287.00
2023-04-15T10:28:53.536Z,101326.13
2023-04-15T10:31:22.213Z,101325.94
2023-04-15T10:33:52.101Z,101288.25
2023-04-15T10:36:20.548Z,101304.16
2023-04-15T10:38:48.133Z,101318.88
2023-04-15T10:41:20.384Z,101330.78
2023-04-15T10:43:53.023Z,101290.59
2023-04-15T10:46:23.753Z,101260.22
2023-04-15T10:48:52.819Z,101241.88
2023-04-15T10:51:32.071Z,101289.31
2023-04-15T10:54:01.072Z,101315.25
2023-04-15T10:56:31.009Z,101337.88
2023-04-15T10:59:02.428Z,101322.16
2023-04-15T11:01:53.330Z,101323.63
2023-04-15T11:04:56.044Z,101323.06
2023-04-15T11:07:52.770Z,101264.25
2023-04-15T11:10:57.742Z,101323.34
2023-04-15T11:13:29.370Z,101293.78
2023-04-15T11:16:04.750Z,101299.69
2023-04-15T11:18:35.101Z,101362.28
2023-04-15T11:21:04.993Z,101384.31
2023-04-15T11:23:35.420Z,101354.53
2023-04-15T11:26:05.644Z,101335.50
2023-04-15T11:28:35.021Z,101394.28
2023-04-15T11:31:12.884Z,101381.38
2023-04-15T11:33:47.207Z,101404.09
2023-04-15T11:36:15.120Z,101422.84
2023-04-15T11:38:47.645Z,101409.41
2023-04-15T11:41:15.461Z,101422.81
2023-04-15T11:43:43.578Z,101439.22
2023-04-15T11:46:12.747Z,101427.03
2023-04-15T11:48:43.849Z,101406.31
2023-04-15T11:51:12.906Z,101457.56
2023-04-15T11:53:42.170Z,101460.34
2023-04-15T11:56:11.040Z,101467.03
2023-04-15T11:58:39.596Z,101465.28
2023-04-15T12:01:08.428Z,101468.81
2023-04-15T12:03:42.516Z,101452.06
2023-04-15T12:06:16.673Z,101432.53
2023-04-15T12:09:02.648Z,101453.94
2023-04-15T12:11:36.555Z,101457.13
2023-04-15T12:14:10.523Z,101457.56
2023-04-15T12:16:48.891Z,101463.59
2023-04-15T12:19:23.447Z,101447.84
2023-04-15T12:21:51.475Z,101472.00
2023-04-15T12:24:23.806Z,101474.88
2023-04-15T12:26:53.147Z,101467.63
2023-04-15T12:29:22.160Z,101484.09
2023-04-15T12:31:51.768Z,101460.00
2023-04-15T12:34:27.935Z,101453.72
2023-04-15T12:36:55.965Z,101496.81
2023-04-15T12:39:25.054Z,101483.06
2023-04-15T12:41:52.927Z,101470.31
2023-04-15T12:44:21.068Z,101465.59
2023-04-15T12:46:48.870Z,101476.03
2023-04-15T12:49:19.589Z,101528.72
2023-04-15T12:51:50.048Z,101533.78
2023-04-15T12:54:18.082Z,101528.56
2023-04-15T12:56:46.105Z,101534.41
2023-04-15T12:59:14.086Z,101527.66
2023-04-15T13:01:42.088Z,101512.03
2023-04-15T13:04:10.059Z,101518.88
2023-04-15T13:06:38.509Z,101523.44
2023-04-15T13:09:07.815Z,101492.41
2023-04-15T13:11:36.509Z,101513.69
2023-04-15T13:14:06.757Z,101491.88
2023-04-15T13:16:35.418Z,101486.97
2023-04-15T13:19:04.960Z,101522.19
2023-04-15T13:21:36.228Z,101530.97
2023-04-15T13:24:05.192Z,101518.28
2023-04-15T13:26:34.613Z,101500.94
2023-04-15T13:29:02.426Z,101568.09
2023-04-15T13:31:30.201Z,101565.34
2023-04-15T13:33:58.142Z,101531.69
2023-04-15T13:36:26.475Z,101543.88
2023-04-15T13:38:54.146Z,101532.84
2023-04-15T13:41:21.812Z,101528.44
2023-04-15T13:43:51.157Z,101479.00
2023-04-15T13:46:19.136Z,101498.81
2023-04-15T13:48:46.894Z,101467.16
2023-04-15T13:51:14.653Z,101386.41
2023-04-15T13:53:42.340Z,101399.53
2023-04-15T13:56:10.624Z,101378.09
2023-04-15T13:58:38.893Z,101397.50
2023-04-15T14:01:08.162Z,101366.75
2023-04-15T14:03:37.133Z,101380.97
2023-04-15T14:06:05.918Z,101321.28
2023-04-15T14:08:33.499Z,101315.69
2023-04-15T14:11:01.240Z,101293.75
2023-04-15T14:13:28.972Z,101300.47
2023-04-15T14:15:57.996Z,101296.84
2023-04-15T14:18:27.461Z,101280.31
2023-04-15T14:20:55.200Z,101297.97
2023-04-15T14:23:23.183Z,101270.66
2023-04-15T14:25:51.649Z,101271.72
2023-04-15T14:28:19.391Z,101266.69
2023-04-15T14:30:47.321Z,101233.66
2023-04-15T14:33:15.154Z,101228.72
2023-04-15T14:35:44.345Z,101234.69
2023-04-15T14:38:12.026Z,101224.19
2023-04-15T14:40:39.925Z,101266.84
2023-04-15T14:43:07.698Z,101260.44
2023-04-15T14:45:36.304Z,101245.53
2023-04-15T14:48:04.318Z,101259.00
2023-04-15T14:50:32.127Z,101246.59
2023-04-15T14:53:01.150Z,101222.91
2023-04-15T14:55:28.897Z,101189.22
2023-04-15T14:57:56.554Z,101196.88
2023-04-15T15:00:24.272Z,101224.66
2023-04-15T15:02:51.998Z,101225.56
2023-04-15T15:05:19.996Z,101243.97
2023-04-15T15:07:47.878Z,101235.19
2023-04-15T15:10:16.965Z,101233.56
2023-04-15T15:13:01.428Z,101218.47
2023-04-15T15:15:29.656Z,101219.00
2023-04-15T15:17:57.361Z,101225.53
2023-04-15T15:20:25.406Z,101233.91
2023-04-15T15:22:53.416Z,101226.97
2023-04-15T15:25:22.689Z,101205.72
2023-04-15T15:27:50.541Z,101196.34
2023-04-15T15:30:18.194Z,101178.31
2023-04-15T15:32:45.941Z,101189.66
2023-04-15T15:35:13.673Z,101218.09
2023-04-15T15:37:43.264Z,101208.97
2023-04-15T15:40:12.191Z,101222.13
2023-04-15T15:42:41.910Z,101214.56
2023-04-15T15:45:10.204Z,101214.91
2023-04-15T15:47:37.995Z,101206.31
2023-04-15T15:50:07.679Z,101186.75
2023-04-15T15:52:35.440Z,101155.34
2023-04-15T15:55:03.274Z,101140.28
2023-04-15T15:57:30.989Z,101121.59
2023-04-15T16:00:10.536Z,101111.13
2023-04-15T16:05:11.265Z,101103.56
2023-04-15T16:07:38.931Z,101116.00
2023-04-15T16:10:07.884Z,101122.97
2023-04-15T16:12:35.727Z,101128.53
2023-04-15T16:15:05.248Z,101137.75
2023-04-15T16:17:33.584Z,101122.22
2023-04-15T16:20:05.310Z,101106.50
2023-04-15T16:22:33.208Z,101108.53
2023-04-15T16:25:01.603Z,101129.69
2023-04-15T16:27:29.333Z,101111.94
2023-04-15T16:29:57.137Z,101109.22
2023-04-15T16:32:26.309Z,101145.63
2023-04-15T16:34:54.162Z,101151.03
2023-04-15T16:37:22.255Z,101155.97
2023-04-15T16:39:50.002Z,101157.72
2023-04-15T16:42:17.926Z,101160.34
2023-04-15T16:44:45.624Z,101165.34
2023-04-15T16:47:13.292Z,101171.47
2023-04-15T16:49:42.280Z,101178.56
2023-04-15T16:52:10.061Z,101181.34
2023-04-15T16:54:41.210Z,101175.41
2023-04-15T16:57:09.095Z,101183.56
2023-04-15T16:59:36.866Z,101186.09
2023-04-15T17:02:04.731Z,101193.09
2023-04-15T17:04:32.692Z,101179.59
2023-04-15T17:07:01.795Z,101186.25
2023-04-15T17:09:29.437Z,101177.25
2023-04-15T17:11:57.629Z,101183.53
2023-04-15T17:14:25.773Z,101177.97
2023-04-15T17:16:53.548Z,101167.09
2023-04-15T17:19:21.251Z,101162.19
2023-04-15T17:21:48.926Z,101160.97
2023-04-15T17:24:17.939Z,101148.22
2023-04-15T17:26:46.910Z,101150.94
2023-04-15T17:29:14.666Z,101135.78
2023-04-15T17:31:42.644Z,101139.78
2023-04-15T17:34:12.115Z,101111.69
2023-04-15T17:36:41.293Z,101092.53
2023-04-15T17:39:08.940Z,101071.78
2023-04-15T17:41:38.038Z,101060.88
2023-04-15T17:44:05.922Z,101076.19
2023-04-15T17:46:33.755Z,101064.63
2023-04-15T17:49:01.482Z,101044.69
2023-04-15T17:51:29.138Z,101043.72
2023-04-15T17:53:57.004Z,101032.56
2023-04-15T17:56:25.067Z,101030.22
2023-04-15T17:58:54.149Z,101018.25
2023-04-15T18:01:22.510Z,101010.88
2023-04-15T18:03:50.646Z,100977.22
2023-04-15T18:06:21.316Z,101024.38
2023-04-15T18:08:49.353Z,101030.44
2023-04-15T18:11:18.036Z,101021.94
2023-04-15T18:13:45.776Z,101023.06
2023-04-15T18:16:14.917Z,101029.03
2023-04-15T18:18:42.716Z,101040.00
2023-04-15T18:21:12.258Z,101042.72
2023-04-15T18:23:41.630Z,101035.94
2023-04-15T18:26:09.515Z,101035.69
2023-04-15T18:28:38.751Z,101019.53
2023-04-15T18:31:07.047Z,101022.75
2023-04-15T18:33:36.582Z,101025.19
2023-04-15T18:36:04.549Z,101022.69
2023-04-15T18:38:32.711Z,101026.94
2023-04-15T18:41:00.714Z,101016.16
2023-04-15T18:43:28.361Z,101025.44
2023-04-15T18:45:56.609Z,101027.25
2023-04-15T18:48:24.412Z,101025.28
2023-04-15T18:50:54.440Z,101024.50
2023-04-15T18:53:22.365Z,100987.25
2023-04-15T18:55:50.024Z,101010.31
2023-04-15T18:58:18.531Z,101015.34
2023-04-15T19:00:46.296Z,101008.88
2023-04-15T19:03:14.104Z,101004.97
2023-04-15T19:05:41.944Z,101005.00
2023-04-15T19:08:11.860Z,101000.09
2023-04-15T19:10:39.852Z,100994.41
2023-04-15T19:13:07.688Z,100991.16
2023-04-15T19:15:35.480Z,100988.06
2023-04-15T19:18:05.307Z,100987.22
2023-04-15T19:20:35.707Z,101004.50
2023-04-15T19:23:05.083Z,101000.91
2023-04-15T19:25:34.518Z,101007.25
2023-04-15T19:28:02.303Z,101005.97
2023-04-15T19:30:32.641Z,101007.75
2023-04-15T19:33:00.676Z,100996.38
2023-04-15T19:35:28.398Z,100989.97
2023-04-15T19:37:56.237Z,101004.47
2023-04-15T19:40:23.941Z,101008.75
2023-04-15T19:42:53.223Z,101003.00
2023-04-15T19:45:20.910Z,100994.25
2023-04-15T19:47:48.611Z,100982.84
2023-04-15T19:50:17.017Z,100982.88
2023-04-15T19:52:44.697Z,100960.91
2023-04-15T19:55:12.422Z,100955.22
2023-04-15T19:57:40.093Z,100938.25
2023-04-15T20:00:10.887Z,100952.91
2023-04-15T20:02:38.708Z,100928.97
2023-04-15T20:05:09.688Z,100942.31
2023-04-15T20:07:37.937Z,100934.97
2023-04-15T20:10:12.133Z,100941.00
2023-04-15T20:12:49.390Z,100941.97
2023-04-15T20:15:23.867Z,100944.56
2023-04-15T20:17:52.073Z,100951.88
2023-04-15T20:20:19.899Z,100952.69
2023-04-15T20:22:47.802Z,100954.81
2023-04-15T20:25:15.743Z,100947.78
2023-04-15T20:27:43.688Z,100954.66
2023-04-15T20:30:12.234Z,100947.47
2023-04-15T20:32:41.625Z,100948.81
2023-04-15T20:35:09.531Z,100934.00
2023-04-15T20:37:38.149Z,100920.84
2023-04-15T20:40:06.902Z,100894.78
2023-04-15T20:42:35.440Z,100875.78
2023-04-15T20:45:03.940Z,100859.00
2023-04-15T20:47:31.664Z,100853.59
2023-04-15T20:50:00.924Z,100855.53
2023-04-15T20:52:28.741Z,100854.84
2023-04-15T20:54:56.445Z,100850.84
2023-04-15T20:57:24.638Z,100854.03
2023-04-15T20:59:52.380Z,100859.41
2023-04-15T21:02:20.243Z,100863.38
2023-04-15T21:04:48.378Z,100833.94
2023-04-15T21:07:17.555Z,100835.09
2023-04-15T21:09:46.982Z,100819.09
2023-04-15T21:12:14.746Z,100824.75
2023-04-15T21:14:42.458Z,100823.59
2023-04-15T21:17:11.283Z,100822.78
2023-04-15T21:19:40.376Z,100817.91
2023-04-15T21:22:07.859Z,100813.00
2023-04-15T21:24:36.964Z,100804.94
2023-04-15T21:27:04.842Z,100785.53
2023-04-15T21:29:32.532Z,100777.03
2023-04-15T21:32:00.282Z,100761.94
2023-04-15T21:34:28.012Z,100761.94
2023-04-15T21:36:55.830Z,100767.97
2023-04-15T21:39:23.562Z,100767.97
2023-04-15T21:41:52.580Z,100749.75
2023-04-15T21:44:20.338Z,100736.22
2023-04-15T21:46:48.217Z,100741.44
2023-04-15T21:49:15.974Z,100746.81
2023-04-15T21:51:43.627Z,100740.97
2023-04-15T21:54:11.363Z,100747.28
2023-04-15T21:56:39.093Z,100747.13
2023-04-15T21:59:08.255Z,100740.50
2023-04-15T22:01:36.053Z,100729.38
2023-04-15T22:04:03.834Z,100732.00
2023-04-15T22:06:31.666Z,100730.19
2023-04-15T22:08:59.353Z,100720.59
2023-04-15T22:11:28.441Z,100722.38
2023-04-15T22:13:56.869Z,100731.19
2023-04-15T22:16:26.305Z,100714.91
2023-04-15T22:18:54.299Z,100712.94
2023-04-15T22:21:22.085Z,100721.28
2023-04-15T22:23:50.452Z,100703.56
2023-04-15T22:26:18.091Z,100683.66
2023-04-15T22:28:46.045Z,100676.47
2023-04-15T22:31:14.770Z,100660.69
2023-04-15T22:33:43.670Z,100661.84
2023-04-15T22:36:11.238Z,100652.72
2023-04-15T22:38:38.958Z,100653.34
2023-04-15T22:41:06.774Z,100637.25
2023-04-15T22:43:34.506Z,100631.28
2023-04-15T22:46:02.593Z,100610.72
2023-04-15T22:48:30.432Z,100594.66
2023-04-15T22:50:59.454Z,100596.63
2023-04-15T22:53:27.364Z,100576.13
2023-04-15T22:55:55.101Z,100574.63
2023-04-15T22:58:22.897Z,100570.63
2023-04-15T23:00:50.770Z,100557.59
2023-04-15T23:03:18.570Z,100550.00
2023-04-15T23:05:46.720Z,100544.41
2023-04-15T23:08:15.750Z,100540.47
2023-04-15T23:10:44.571Z,100531.88
2023-04-15T23:13:12.348Z,100528.91
2023-04-15T23:15:40.230Z,100523.72
2023-04-15T23:18:07.986Z,100523.06
2023-04-15T23:20:35.724Z,100519.72
2023-04-15T23:23:03.454Z,100515.50
2023-04-15T23:25:32.523Z,100509.22
2023-04-15T23:28:00.270Z,100505.00
2023-04-15T23:30:28.013Z,100503.91
2023-04-15T23:32:55.851Z,100497.28
2023-04-15T23:35:23.684Z,100489.47
2023-04-15T23:37:51.503Z,100486.69
2023-04-15T23:40:19.107Z,100503.16
2023-04-15T23:42:48.282Z,100485.66
2023-04-15T23:45:15.966Z,100488.59
2023-04-15T23:47:43.780Z,100475.09
2023-04-15T23:50:12.095Z,100466.47
2023-04-15T23:52:39.863Z,100469.22
2023-04-15T23:55:08.671Z,100460.06
2023-04-15T23:57:36.210Z,100458.81
